Time;durP1;ratioP1;P1;durP2;ratioP2;P2;SDS_P1;SDS_P2;PMS_P1;PMS_P2;Temp;Humidity;BMP_temperature;BMP_pressure;BME280_temperature;BME280_humidity;BME280_pressure;Samples;Min_cycle;Max_cycle;Signal;HPM_P1;HPM_P2
2022/05/30 00:00:52;;;;;;;2.73;1.50;;;;;;;8.96;100.00;98582.53;5114242;28;20657;-78
2022/05/30 00:03:20;;;;;;;1.63;1.43;;;;;;;9.04;100.00;98581.06;5106869;28;20202;-79
2022/05/30 00:05:51;;;;;;;1.60;1.27;;;;;;;8.98;100.00;98580.66;5112793;28;20187;-78
2022/05/30 00:08:20;;;;;;;2.23;1.27;;;;;;;8.98;100.00;98578.84;5116191;28;20195;-78
2022/05/30 00:10:50;;;;;;;2.50;1.20;;;;;;;8.82;100.00;98584.31;5117012;28;20199;-78
2022/05/30 00:13:18;;;;;;;3.63;1.23;;;;;;;8.81;100.00;98579.97;5116681;28;20275;-78
2022/05/30 00:15:46;;;;;;;3.50;1.40;;;;;;;8.91;100.00;98585.50;5113425;28;20637;-78
2022/05/30 00:18:14;;;;;;;2.03;1.23;;;;;;;8.95;100.00;98588.75;5112448;28;20194;-78
2022/05/30 00:20:47;;;;;;;4.10;1.50;;;;;;;8.91;100.00;98588.13;5117957;27;20222;-78
2022/05/30 00:23:16;;;;;;;1.83;1.40;;;;;;;9.02;100.00;98584.78;5119740;27;20683;-78
2022/05/30 00:25:44;;;;;;;5.43;1.50;;;;;;;9.15;100.00;98583.81;5116420;28;20202;-78
2022/05/30 00:28:16;;;;;;;3.23;1.47;;;;;;;9.18;100.00;98577.50;5116641;28;20222;-78
2022/05/30 00:30:44;;;;;;;2.33;1.57;;;;;;;9.17;100.00;98581.97;5116578;28;20226;-79
2022/05/30 00:33:13;;;;;;;2.50;1.40;;;;;;;9.30;100.00;98584.59;5112946;28;20211;-78
2022/05/30 00:35:42;;;;;;;2.17;1.50;;;;;;;9.24;100.00;98585.00;5115187;28;20198;-78
2022/05/30 00:38:11;;;;;;;4.23;1.50;;;;;;;9.18;100.00;98585.44;5108793;28;20199;-79
2022/05/30 00:40:41;;;;;;;2.70;1.67;;;;;;;9.43;100.00;98580.16;5113026;28;20226;-78
2022/05/30 00:43:24;;;;;;;1.97;1.10;;;;;;;9.16;100.00;98582.03;5116168;27;20202;-78
2022/05/30 00:45:56;;;;;;;1.63;1.20;;;;;;;9.10;100.00;98579.81;5115828;28;20274;-78
2022/05/30 00:48:28;;;;;;;1.30;1.20;;;;;;;9.27;100.00;98576.91;5109095;28;20199;-79
2022/05/30 00:51:02;;;;;;;1.80;1.17;;;;;;;9.13;100.00;98574.31;5115125;28;20195;-79
2022/05/30 00:53:34;;;;;;;3.43;1.60;;;;;;;9.08;100.00;98573.81;5113132;28;20245;-78
2022/05/30 00:56:05;;;;;;;2.37;1.63;;;;;;;9.18;100.00;98574.88;5110826;28;20713;-79
2022/05/30 00:58:38;;;;;;;3.23;1.60;;;;;;;9.41;100.00;98576.78;5053001;28;20276;-79
2022/05/30 01:01:07;;;;;;;2.53;1.60;;;;;;;9.46;100.00;98577.31;5051365;28;20220;-78
2022/05/30 01:06:33;;;;;;;1.63;1.50;;;;;;;9.57;100.00;98573.09;5052846;28;20197;-78
2022/05/30 01:09:06;;;;;;;3.40;1.50;;;;;;;9.58;100.00;98570.34;5052030;28;20212;-78
2022/05/30 01:11:48;;;;;;;7.43;1.53;;;;;;;9.75;100.00;98575.31;5052506;28;20193;-78
2022/05/30 01:14:18;;;;;;;2.30;1.57;;;;;;;9.73;100.00;98579.84;5052894;28;20200;-78
2022/05/30 01:16:46;;;;;;;2.17;1.40;;;;;;;9.68;100.00;98573.19;5051831;28;20197;-78
2022/05/30 01:19:30;;;;;;;2.13;1.50;;;;;;;9.48;100.00;98569.28;5046433;28;20331;-78
2022/05/30 01:22:14;;;;;;;3.43;1.57;;;;;;;9.27;100.00;98570.75;5049075;28;20216;-78
2022/05/30 01:24:51;;;;;;;2.43;1.60;;;;;;;9.27;100.00;98568.13;5115378;28;20202;-78
2022/05/30 01:27:33;;;;;;;4.70;2.00;;;;;;;9.28;100.00;98570.66;5113723;28;20203;-78
2022/05/30 01:30:09;;;;;;;2.47;1.50;;;;;;;9.22;100.00;98568.41;5115150;28;20227;-78
2022/05/30 01:32:37;;;;;;;3.23;1.53;;;;;;;9.39;100.00;98564.63;5113972;28;20202;-78
2022/05/30 01:35:08;;;;;;;3.63;1.63;;;;;;;9.46;100.00;98566.75;5112113;28;20199;-78
2022/05/30 01:37:36;;;;;;;2.47;1.50;;;;;;;9.54;100.00;98563.56;5112245;28;20190;-78
2022/05/30 01:40:06;;;;;;;4.77;1.50;;;;;;;9.62;100.00;98570.97;5111087;28;20206;-78
2022/05/30 01:42:34;;;;;;;2.87;1.60;;;;;;;9.57;100.00;98552.78;5115019;28;20215;-78
2022/05/30 01:45:04;;;;;;;4.73;1.80;;;;;;;9.65;100.00;98562.81;5116199;27;20207;-78
2022/05/30 01:47:33;;;;;;;3.73;1.60;;;;;;;9.66;100.00;98561.88;5113846;28;20654;-78
2022/05/30 01:50:02;;;;;;;2.70;1.50;;;;;;;9.69;100.00;98551.91;5115112;28;20198;-78
2022/05/30 01:52:31;;;;;;;2.50;1.80;;;;;;;9.51;100.00;98561.13;5113190;28;20205;-78
2022/05/30 01:54:59;;;;;;;2.03;1.77;;;;;;;9.48;100.00;98557.88;5106600;28;20214;-78
2022/05/30 01:57:28;;;;;;;5.17;2.00;;;;;;;9.63;100.00;98564.72;5111619;28;20236;-78
2022/05/30 01:59:56;;;;;;;3.87;1.67;;;;;;;9.60;100.00;98559.66;5114800;28;20194;-78
2022/05/30 02:02:25;;;;;;;3.13;1.80;;;;;;;9.40;100.00;98561.88;5111840;28;20219;-78
2022/05/30 02:04:56;;;;;;;2.77;1.70;;;;;;;8.98;100.00;98562.16;5111432;28;20221;-79
2022/05/30 02:07:24;;;;;;;2.53;1.70;;;;;;;9.10;100.00;98572.75;5107614;28;20198;-78
2022/05/30 02:09:52;;;;;;;2.20;1.63;;;;;;;8.89;100.00;98560.97;5115674;27;20270;-78
2022/05/30 02:12:21;;;;;;;2.10;1.60;;;;;;;8.90;100.00;98565.31;5115709;27;20202;-78
2022/05/30 02:14:49;;;;;;;2.10;1.60;;;;;;;9.07;100.00;98565.03;5091872;28;20252;-78
2022/05/30 02:17:16;;;;;;;2.67;1.60;;;;;;;9.24;100.00;98565.66;5088221;28;20198;-78
2022/05/30 02:19:46;;;;;;;2.87;1.73;;;;;;;9.38;100.00;98557.66;5089048;28;20199;-78
2022/05/30 02:22:16;;;;;;;1.90;1.50;;;;;;;9.44;100.00;98562.50;5091764;28;20226;-78
2022/05/30 02:24:45;;;;;;;3.20;1.93;;;;;;;9.45;100.00;98558.91;5091682;28;20272;-78
2022/05/30 02:27:13;;;;;;;1.93;1.60;;;;;;;9.59;100.00;98553.53;5089043;28;20199;-78
2022/05/30 02:29:42;;;;;;;2.43;1.53;;;;;;;9.57;100.00;98559.88;5088014;28;20233;-78
2022/05/30 02:32:10;;;;;;;3.87;1.87;;;;;;;9.66;100.00;98554.78;5088513;28;20282;-78
2022/05/30 02:37:26;;;;;;;2.87;1.80;;;;;;;9.69;100.00;98559.84;5113904;28;20183;-78
2022/05/30 02:39:54;;;;;;;2.67;1.60;;;;;;;9.84;100.00;98549.97;5114142;28;20270;-78
2022/05/30 02:42:22;;;;;;;5.20;1.97;;;;;;;9.87;100.00;98551.59;5113923;28;20215;-78
2022/05/30 02:44:50;;;;;;;6.00;1.87;;;;;;;9.84;100.00;98549.13;5113992;28;20199;-78
2022/05/30 02:47:18;;;;;;;2.70;1.80;;;;;;;9.90;100.00;98552.19;5113978;27;20187;-78
2022/05/30 02:49:47;;;;;;;2.67;1.80;;;;;;;9.77;100.00;98554.03;5111638;28;20646;-78
2022/05/30 02:52:15;;;;;;;2.27;1.60;;;;;;;9.89;100.00;98554.97;5109523;28;20214;-78
2022/05/30 02:54:44;;;;;;;2.70;1.70;;;;;;;9.85;100.00;98550.84;5114240;28;20222;-82
2022/05/30 02:57:13;;;;;;;3.13;1.70;;;;;;;9.89;100.00;98554.97;5112669;28;20211;-79
2022/05/30 02:59:42;;;;;;;2.53;1.90;;;;;;;9.99;100.00;98554.19;5111548;28;20187;-77
2022/05/30 03:02:11;;;;;;;1.53;1.43;;;;;;;10.00;100.00;98553.25;5109039;28;20218;-78
2022/05/30 03:04:39;;;;;;;1.97;1.70;;;;;;;10.07;100.00;98556.31;5113530;28;20202;-78
2022/05/30 03:07:07;;;;;;;2.53;1.80;;;;;;;10.03;100.00;98553.00;5113501;28;20335;-78
2022/05/30 03:09:35;;;;;;;2.27;1.70;;;;;;;10.04;100.00;98560.03;5115690;27;20191;-78
2022/05/30 03:12:06;;;;;;;1.77;1.50;;;;;;;10.03;100.00;98560.94;5113484;28;20199;-78
2022/05/30 03:14:34;;;;;;;2.67;1.60;;;;;;;10.04;100.00;98564.47;5113290;28;20202;-78
2022/05/30 03:17:03;;;;;;;2.63;1.70;;;;;;;10.05;100.00;98555.56;5112363;28;20657;-78
2022/05/30 03:19:31;;;;;;;2.80;1.67;;;;;;;10.11;100.00;98562.22;5110297;28;20206;-78
2022/05/30 03:21:59;;;;;;;2.33;1.70;;;;;;;10.14;100.00;98559.38;5113307;28;20229;-78
2022/05/30 03:24:27;;;;;;;3.97;2.00;;;;;;;10.26;100.00;98569.09;5113440;28;20260;-78
2022/05/30 03:26:55;;;;;;;3.37;1.93;;;;;;;10.37;100.00;98563.00;5110041;28;20202;-78
2022/05/30 03:29:25;;;;;;;2.37;1.70;;;;;;;10.34;100.00;98565.91;5109118;28;20705;-78
2022/05/30 03:31:54;;;;;;;1.80;1.53;;;;;;;10.18;100.00;98566.13;5106958;28;20707;-78
2022/05/30 03:34:22;;;;;;;3.20;1.40;;;;;;;10.13;100.00;98560.28;5112861;28;20197;-78
2022/05/30 03:36:50;;;;;;;2.00;1.60;;;;;;;10.09;100.00;98566.78;5108401;28;20270;-78
2022/05/30 03:39:18;;;;;;;2.10;1.53;;;;;;;10.11;100.00;98570.16;5112068;28;20198;-78
2022/05/30 03:41:46;;;;;;;3.70;1.77;;;;;;;10.02;100.00;98561.06;5113763;28;20198;-78
2022/05/30 03:44:15;;;;;;;3.67;1.80;;;;;;;9.95;100.00;98573.06;5117091;27;20187;-78
2022/05/30 03:46:44;;;;;;;3.47;1.80;;;;;;;9.85;100.00;98572.88;5116285;28;20194;-78
2022/05/30 03:49:12;;;;;;;3.40;1.60;;;;;;;9.82;100.00;98574.84;5112587;28;20199;-78
2022/05/30 03:51:41;;;;;;;2.27;1.80;;;;;;;9.83;100.00;98581.84;5112610;28;20202;-78
2022/05/30 03:54:09;;;;;;;3.93;1.83;;;;;;;9.81;100.00;98586.38;5120440;27;20198;-79
2022/05/30 03:56:37;;;;;;;3.13;1.70;;;;;;;9.93;100.00;98586.38;5120520;27;20195;-79
2022/05/30 03:59:06;;;;;;;3.87;1.90;;;;;;;10.03;100.00;98586.56;5114115;28;20195;-78
2022/05/30 04:01:34;;;;;;;3.87;2.00;;;;;;;10.04;100.00;98596.22;5112882;28;20183;-79
2022/05/30 04:04:05;;;;;;;2.87;1.87;;;;;;;10.03;100.00;98592.69;5117161;28;20215;-79
2022/05/30 04:06:33;;;;;;;3.93;1.90;;;;;;;10.02;100.00;98579.56;5116967;28;20199;-79
2022/05/30 04:09:01;;;;;;;4.27;2.00;;;;;;;10.08;100.00;98580.97;5116880;28;20187;-79
2022/05/30 04:11:30;;;;;;;2.10;1.77;;;;;;;10.04;100.00;98573.25;5117504;27;20199;-78
2022/05/30 04:13:58;;;;;;;3.30;1.73;;;;;;;10.02;100.00;98569.84;5116952;28;20195;-78
2022/05/30 04:16:27;;;;;;;2.93;1.90;;;;;;;9.93;100.00;98582.88;5115621;28;20199;-79
2022/05/30 04:18:55;;;;;;;3.63;2.20;;;;;;;9.92;100.00;98581.19;5116766;28;20194;-79
2022/05/30 04:21:24;;;;;;;3.47;2.20;;;;;;;9.62;100.00;98582.38;5113433;28;20210;-78
2022/05/30 04:23:52;;;;;;;2.77;2.03;;;;;;;9.89;100.00;98587.56;5116462;28;20244;-78
2022/05/30 04:26:21;;;;;;;2.67;2.20;;;;;;;9.78;100.00;98591.91;5116612;28;20210;-79
2022/05/30 04:28:50;;;;;;;3.30;2.40;;;;;;;9.77;100.00;98591.06;5106316;28;20199;-79
2022/05/30 04:31:18;;;;;;;4.00;2.50;;;;;;;9.72;100.00;98593.16;5109511;28;20203;-79
2022/05/30 04:33:46;;;;;;;3.60;2.30;;;;;;;9.90;100.00;98599.81;5113395;28;20195;-79
2022/05/30 04:36:15;;;;;;;3.10;2.00;;;;;;;9.95;100.00;98592.41;5111654;28;20195;-79
2022/05/30 04:38:46;;;;;;;3.23;2.07;;;;;;;9.85;100.00;98594.03;5117600;27;20670;-78
2022/05/30 04:41:14;;;;;;;3.47;2.03;;;;;;;9.91;100.00;98598.00;5113290;28;20202;-78
2022/05/30 04:43:42;;;;;;;4.13;2.47;;;;;;;10.03;100.00;98598.00;5113203;28;20230;-79
2022/05/30 04:46:13;;;;;;;2.70;2.40;;;;;;;9.99;100.00;98595.69;5117472;27;20207;-79
2022/05/30 04:48:42;;;;;;;3.17;2.20;;;;;;;10.28;100.00;98593.63;5116154;28;20255;-78
2022/05/30 04:51:11;;;;;;;4.60;2.20;;;;;;;10.40;100.00;98597.19;5119408;27;20219;-78
2022/05/30 04:53:40;;;;;;;5.47;2.33;;;;;;;10.41;100.00;98591.78;5110767;28;20206;-79
2022/05/30 04:56:10;;;;;;;4.83;2.30;;;;;;;10.50;100.00;98592.91;5110664;28;20210;-78
2022/05/30 04:58:39;;;;;;;4.33;2.30;;;;;;;10.59;100.00;98595.75;5118321;27;20264;-79
2022/05/30 05:01:10;;;;;;;3.47;2.20;;;;;;;10.73;100.00;98602.69;5111450;28;20544;-79
2022/05/30 05:03:39;;;;;;;5.57;2.23;;;;;;;10.64;100.00;98597.22;5113507;28;20223;-78
2022/05/30 05:06:11;;;;;;;3.80;2.27;;;;;;;10.60;100.00;98593.94;5115880;28;20202;-79
2022/05/30 05:08:45;;;;;;;5.20;2.20;;;;;;;10.64;100.00;98594.59;5115717;28;20274;-79
2022/05/30 05:11:19;;;;;;;4.67;2.50;;;;;;;10.83;100.00;98597.56;5107740;28;20218;-78
2022/05/30 05:13:47;;;;;;;3.10;2.20;;;;;;;10.97;100.00;98596.53;5118451;27;20206;-79
2022/05/30 05:16:18;;;;;;;3.60;2.10;;;;;;;11.13;100.00;98594.44;5113482;28;20199;-79
2022/05/30 05:18:47;;;;;;;5.20;2.30;;;;;;;11.07;100.00;98592.22;5109060;27;20231;-79
2022/05/30 05:21:18;;;;;;;5.63;2.30;;;;;;;11.00;100.00;98593.63;5110653;28;20191;-78
2022/05/30 05:23:47;;;;;;;3.60;2.00;;;;;;;11.10;100.00;98586.72;5115076;28;20218;-79
2022/05/30 05:26:17;;;;;;;2.93;2.10;;;;;;;11.18;100.00;98594.91;5111878;28;20187;-78
2022/05/30 05:28:47;;;;;;;6.13;2.10;;;;;;;11.33;100.00;98591.09;5114900;28;20195;-79
2022/05/30 05:31:21;;;;;;;6.43;2.10;;;;;;;11.49;100.00;98596.09;5114259;28;20251;-78
2022/05/30 05:33:51;;;;;;;3.23;2.20;;;;;;;11.35;100.00;98591.84;5115058;28;20198;-78
2022/05/30 05:36:20;;;;;;;5.30;2.30;;;;;;;11.35;100.00;98586.53;5109527;28;20198;-79
2022/05/30 05:38:50;;;;;;;3.63;1.83;;;;;;;11.42;100.00;98587.75;5114730;28;20279;-79
2022/05/30 05:41:21;;;;;;;5.93;2.20;;;;;;;11.40;100.00;98587.03;5114729;28;20234;-79
2022/05/30 05:43:52;;;;;;;2.93;1.60;;;;;;;11.44;100.00;98598.25;5106910;28;20695;-78
2022/05/30 05:46:23;;;;;;;4.47;1.90;;;;;;;11.42;100.00;98593.06;5113733;28;20230;-78
2022/05/30 05:48:52;;;;;;;3.20;2.00;;;;;;;11.65;100.00;98601.03;5111932;28;20270;-79
2022/05/30 05:51:21;;;;;;;5.43;1.97;;;;;;;11.31;100.00;98602.81;5111799;28;20187;-79
2022/05/30 05:53:50;;;;;;;4.93;2.20;;;;;;;11.46;100.00;98607.75;5114369;28;20218;-78
2022/05/30 05:56:22;;;;;;;4.47;2.50;;;;;;;11.50;100.00;98611.03;5114791;28;20199;-78
2022/05/30 05:58:51;;;;;;;4.67;1.80;;;;;;;11.32;100.00;98609.78;5112907;28;20191;-79
2022/05/30 06:01:22;;;;;;;4.57;2.00;;;;;;;11.50;100.00;98613.69;5115483;28;20679;-79
2022/05/30 06:03:53;;;;;;;68.47;36.83;;;;;;;12.13;100.00;98611.47;5112309;28;20211;-78
2022/05/30 06:06:22;;;;;;;4.80;2.50;;;;;;;12.38;100.00;98608.56;5108601;28;20200;-78
2022/05/30 06:08:53;;;;;;;5.50;2.07;;;;;;;12.13;100.00;98614.97;5114878;28;20198;-79
2022/05/30 06:11:24;;;;;;;9.23;2.10;;;;;;;12.19;100.00;98611.84;5110224;28;20199;-79
2022/05/30 06:13:52;;;;;;;3.87;1.70;;;;;;;12.19;100.00;98611.84;5111415;28;20214;-78
2022/05/30 06:16:23;;;;;;;6.20;1.87;;;;;;;12.07;100.00;98609.31;5113021;28;20646;-78
2022/05/30 06:18:54;;;;;;;4.03;1.70;;;;;;;12.00;100.00;98608.94;5116588;27;20191;-80
2022/05/30 06:21:23;;;;;;;6.13;2.07;;;;;;;11.95;100.00;98613.75;5123086;28;20770;-79
2022/05/30 06:23:52;;;;;;;5.77;2.40;;;;;;;12.17;100.00;98613.78;5111255;28;20270;-79
2022/05/30 06:26:23;;;;;;;5.03;2.30;;;;;;;12.19;100.00;98616.31;5116322;27;20195;-79
2022/05/30 06:28:54;;;;;;;6.40;2.00;;;;;;;12.17;100.00;98624.41;5109431;28;20187;-79
2022/05/30 06:31:25;;;;;;;4.53;1.90;;;;;;;12.01;100.00;98623.91;5115086;27;20687;-78
2022/05/30 06:33:53;;;;;;;7.33;4.07;;;;;;;12.20;100.00;98620.66;5111169;28;20199;-79
2022/05/30 06:36:24;;;;;;;14.60;8.87;;;;;;;12.38;100.00;98618.34;5110843;28;20202;-78
2022/05/30 06:38:53;;;;;;;14.23;8.77;;;;;;;12.47;100.00;98628.22;5114050;28;20218;-78
2022/05/30 06:41:25;;;;;;;6.20;2.30;;;;;;;12.45;100.00;98627.50;5116866;27;20675;-78
2022/05/30 06:43:55;;;;;;;4.57;2.13;;;;;;;12.58;100.00;98620.25;5110950;28;20215;-78
2022/05/30 06:46:23;;;;;;;6.53;2.07;;;;;;;12.63;100.00;98623.34;5106755;28;20210;-79
2022/05/30 06:48:55;;;;;;;8.27;2.23;;;;;;;12.47;100.00;98628.22;5114000;28;20199;-78
2022/05/30 06:51:26;;;;;;;5.23;2.10;;;;;;;12.46;100.00;98632.72;5112124;28;20222;-78
2022/05/30 06:53:55;;;;;;;3.70;2.00;;;;;;;12.53;100.00;98633.03;5110719;28;20660;-78
2022/05/30 06:56:27;;;;;;;5.47;2.00;;;;;;;12.66;100.00;98633.75;5110727;28;20199;-78
2022/05/30 06:58:56;;;;;;;3.97;1.90;;;;;;;12.64;100.00;98633.00;5113821;28;20199;-79
2022/05/30 07:01:28;;;;;;;5.97;1.90;;;;;;;12.82;100.00;98638.66;5112780;27;20195;-79
2022/05/30 07:03:56;;;;;;;4.00;1.73;;;;;;;12.97;100.00;98631.25;5112974;28;20191;-78
2022/05/30 07:06:28;;;;;;;3.20;1.60;;;;;;;13.04;100.00;98627.13;5113215;28;20214;-78
2022/05/30 07:08:57;;;;;;;5.83;2.17;;;;;;;13.16;100.00;98626.94;5110104;28;20191;-78
2022/05/30 07:11:26;;;;;;;5.63;1.90;;;;;;;12.93;100.00;98624.47;5113159;28;20202;-78
2022/05/30 07:13:55;;;;;;;4.17;1.83;;;;;;;13.28;100.00;98629.56;5112201;28;20277;-78
2022/05/30 07:16:24;;;;;;;5.63;1.67;;;;;;;13.24;100.00;98639.63;5111524;28;20199;-78
2022/05/30 07:18:52;;;;;;;5.40;2.03;;;;;;;13.12;100.00;98638.81;5109973;28;20376;-78
2022/05/30 07:21:21;;;;;;;5.83;1.90;;;;;;;13.25;100.00;98635.16;5112387;28;20195;-78
2022/05/30 07:23:51;;;;;;;3.33;1.50;;;;;;;13.01;100.00;98635.31;5092954;28;20704;-78
2022/05/30 07:26:22;;;;;;;4.23;2.27;;;;;;;13.16;100.00;98634.91;5091272;28;20206;-78
2022/05/30 07:28:52;;;;;;;6.80;2.20;;;;;;;13.30;100.00;98628.47;5105793;28;20233;-79
2022/05/30 07:31:25;;;;;;;8.13;2.20;;;;;;;13.56;100.00;98630.75;5103664;28;20222;-78
2022/05/30 07:33:54;;;;;;;5.43;1.80;;;;;;;13.73;100.00;98635.50;5088217;28;20228;-79
2022/05/30 07:36:25;;;;;;;5.30;2.00;;;;;;;14.08;100.00;98636.94;5091253;28;20201;-79
2022/05/30 07:38:53;;;;;;;3.83;2.70;;;;;;;14.12;100.00;98628.56;5113483;28;20642;-78
2022/05/30 07:41:23;;;;;;;6.23;2.20;;;;;;;13.87;100.00;98635.16;5109901;28;20302;-78
2022/05/30 07:43:53;;;;;;;7.70;2.10;;;;;;;13.50;100.00;98639.25;5112554;28;20649;-79
2022/05/30 07:46:21;;;;;;;5.07;1.80;;;;;;;13.71;100.00;98640.97;5106770;28;20256;-78
2022/05/30 07:48:50;;;;;;;6.80;2.10;;;;;;;14.10;100.00;98635.00;5110420;28;20202;-78
2022/05/30 07:51:19;;;;;;;5.30;2.13;;;;;;;13.82;100.00;98636.53;5111605;28;20202;-78
2022/05/30 07:53:48;;;;;;;4.43;2.10;;;;;;;13.62;100.00;98639.06;5113316;28;20195;-78
2022/05/30 07:56:19;;;;;;;7.00;3.37;;;;;;;13.97;100.00;98632.53;5115065;28;20622;-78
2022/05/30 07:58:48;;;;;;;4.77;1.87;;;;;;;13.99;100.00;98630.56;5111431;28;20202;-78
2022/05/30 08:01:21;;;;;;;6.00;2.17;;;;;;;14.26;100.00;98641.50;5111861;28;20195;-78
2022/05/30 08:03:52;;;;;;;6.20;2.10;;;;;;;14.21;100.00;98642.91;5109270;28;20192;-78
2022/05/30 08:06:22;;;;;;;4.20;2.10;;;;;;;14.12;100.00;98644.53;5112842;28;20542;-78
2022/05/30 08:08:51;;;;;;;4.20;2.13;;;;;;;14.28;100.00;98646.69;5107612;28;20195;-78
2022/05/30 08:11:19;;;;;;;4.57;2.30;;;;;;;14.34;100.00;98646.16;5110121;28;20199;-77
2022/05/30 08:13:48;;;;;;;4.77;2.10;;;;;;;14.50;100.00;98648.38;5111225;28;20198;-78
2022/05/30 08:16:21;;;;;;;4.23;2.07;;;;;;;14.24;100.00;98642.63;5111796;28;20187;-78
2022/05/30 08:19:10;;;;;;;7.10;2.17;;;;;;;14.53;100.00;98642.75;5112757;28;20256;-78
2022/05/30 08:22:03;;;;;;;4.53;1.97;;;;;;;14.78;100.00;98646.75;5112906;28;20203;-78
2022/05/30 08:24:35;;;;;;;5.83;2.07;;;;;;;14.32;100.00;98651.63;5109883;28;20201;-78
2022/05/30 08:27:04;;;;;;;4.20;2.10;;;;;;;14.25;100.00;98655.78;5109403;28;20203;-78
2022/05/30 08:29:32;;;;;;;7.90;4.57;;;;;;;14.11;100.00;98658.81;5115805;28;20234;-78
2022/05/30 08:32:02;;;;;;;5.00;2.60;;;;;;;14.39;100.00;98656.44;5112285;28;20195;-78
2022/05/30 08:34:31;;;;;;;5.10;2.17;;;;;;;14.57;100.00;98660.16;5118775;27;20203;-78
2022/05/30 08:37:01;;;;;;;4.33;2.23;;;;;;;14.58;100.00;98656.53;5110798;28;20195;-78
2022/05/30 08:42:14;;;;;;;3.77;1.70;;;;;;;14.77;100.00;98661.06;5115977;28;20274;-78
2022/05/30 08:44:43;;;;;;;5.00;1.80;;;;;;;14.77;100.00;98661.91;5114146;28;20623;-78
2022/05/30 08:47:28;;;;;;;6.73;2.47;;;;;;;14.64;100.00;98663.97;5112381;28;20191;-78
2022/05/30 08:50:07;;;;;;;5.07;2.00;;;;;;;14.28;100.00;98665.34;5116211;28;20266;-78
2022/05/30 08:52:50;;;;;;;5.40;1.80;;;;;;;14.51;100.00;98664.22;5113230;28;20657;-78
2022/05/30 08:55:28;;;;;;;3.50;2.03;;;;;;;14.69;100.00;98664.41;5113138;28;20278;-79
2022/05/30 08:58:07;;;;;;;4.00;1.80;;;;;;;14.77;100.00;98663.75;5117514;27;20255;-78
2022/05/30 09:00:37;;;;;;;3.73;1.57;;;;;;;14.23;100.00;98656.91;5110256;28;20635;-78
2022/05/30 09:03:13;;;;;;;5.53;2.17;;;;;;;14.41;100.00;98659.78;5115413;28;20226;-79
2022/05/30 09:05:45;;;;;;;4.33;1.63;;;;;;;14.62;100.00;98649.09;5115776;28;20214;-78
2022/05/30 09:08:24;;;;;;;5.13;2.10;;;;;;;14.81;100.00;98654.47;5113788;28;20198;-78
2022/05/30 09:10:57;;;;;;;5.53;1.97;;;;;;;14.88;100.00;98660.94;5112774;28;20203;-78
2022/05/30 09:13:30;;;;;;;2.93;1.50;;;;;;;14.89;100.00;98658.13;5115615;28;20673;-78
2022/05/30 09:16:05;;;;;;;6.20;1.60;;;;;;;14.81;100.00;98663.31;5111388;28;20245;-78
2022/05/30 09:18:45;;;;;;;4.60;2.13;;;;;;;14.64;100.00;98661.28;5112638;28;20186;-77
2022/05/30 09:21:14;;;;;;;4.00;1.50;;;;;;;14.64;100.00;98652.47;5113924;28;20694;-78
2022/05/30 09:23:44;;;;;;;4.43;1.50;;;;;;;14.56;100.00;98663.78;5112615;28;20218;-78
2022/05/30 09:26:17;;;;;;;3.77;1.50;;;;;;;14.50;100.00;98669.69;5113469;28;20230;-78
2022/05/30 09:28:48;;;;;;;2.80;1.37;;;;;;;14.75;100.00;98663.84;5111023;28;20278;-78
2022/05/30 09:31:27;;;;;;;3.37;1.40;;;;;;;14.54;100.00;98668.41;5114204;28;20183;-78
2022/05/30 09:33:59;;;;;;;3.53;1.17;;;;;;;14.56;100.00;98669.13;5112260;28;20202;-78
2022/05/30 09:36:29;;;;;;;3.67;1.20;;;;;;;14.49;100.00;98660.00;5116076;27;20195;-78
2022/05/30 09:39:00;;;;;;;2.37;1.33;;;;;;;14.28;100.00;98665.34;5108905;28;20213;-78
2022/05/30 09:41:31;;;;;;;3.77;1.47;;;;;;;14.33;100.00;98669.28;5115255;28;20214;-80
2022/05/30 09:44:03;;;;;;;2.70;1.30;;;;;;;14.52;100.00;98667.72;5112409;28;20188;-80
2022/05/30 09:46:36;;;;;;;4.53;1.97;;;;;;;14.55;100.00;98673.59;5107079;28;20297;-77
2022/05/30 09:49:10;;;;;;;3.53;1.57;;;;;;;14.43;100.00;98674.66;5114343;28;20230;-79
2022/05/30 09:51:42;;;;;;;6.00;1.43;;;;;;;14.40;100.00;98664.28;5110575;28;20198;-81
2022/05/30 09:54:13;;;;;;;3.07;1.43;;;;;;;14.57;100.00;98670.81;5115252;28;20202;-80
2022/05/30 09:56:46;;;;;;;2.47;1.20;;;;;;;13.82;100.00;98673.81;5113494;28;20206;-80
2022/05/30 09:59:31;;;;;;;2.73;1.27;;;;;;;13.41;100.00;98670.13;5114847;28;20199;-80
2022/05/30 10:02:00;;;;;;;3.80;1.17;;;;;;;14.03;100.00;98663.97;5113437;28;20195;-80
2022/05/30 10:04:39;;;;;;;4.90;1.60;;;;;;;14.29;98.35;98667.88;5110486;28;20711;-80
2022/05/30 10:07:13;;;;;;;2.17;1.20;;;;;;;14.72;96.79;98666.78;5114812;28;20218;-79
2022/05/30 10:09:51;;;;;;;2.77;1.50;;;;;;;15.02;96.45;98665.03;5114787;28;20199;-80
2022/05/30 10:12:35;;;;;;;3.30;1.63;;;;;;;15.15;94.71;98662.91;5114614;28;20250;-79
2022/05/30 10:15:23;;;;;;;2.97;1.40;;;;;;;15.12;96.69;98666.72;5114650;28;20194;-80
2022/05/30 10:17:52;;;;;;;3.20;1.30;;;;;;;15.44;94.49;98669.16;5107636;28;20195;-80
2022/05/30 10:20:36;;;;;;;2.00;1.30;;;;;;;15.50;93.69;98667.72;5114432;28;20195;-77
2022/05/30 10:29:05;;;;;;;3.03;1.30;;;;;;;14.30;100.00;98687.38;5114182;28;20203;-79
2022/05/30 10:31:49;;;;;;;3.20;1.20;;;;;;;14.10;100.00;98675.78;5113225;27;20673;-79
2022/05/30 10:34:37;;;;;;;3.27;1.53;;;;;;;14.04;100.00;98685.13;5114502;28;20201;-78
2022/05/30 10:37:23;;;;;;;2.13;1.20;;;;;;;13.43;100.00;98690.34;5114032;28;20191;-79
2022/05/30 10:40:15;;;;;;;5.40;1.67;;;;;;;13.43;100.00;98692.16;5111035;28;20653;-79
2022/05/30 10:42:50;;;;;;;4.47;1.70;;;;;;;13.56;100.00;98692.81;5114302;28;20199;-79
2022/05/30 10:45:23;;;;;;;3.70;1.40;;;;;;;13.55;100.00;98693.78;5109586;28;20653;-79
2022/05/30 10:47:55;;;;;;;3.63;1.30;;;;;;;13.73;100.00;98696.72;5112849;28;20306;-79
2022/05/30 10:50:42;;;;;;;2.23;1.10;;;;;;;13.94;100.00;98699.38;5115592;27;20669;-79
2022/05/30 10:53:25;;;;;;;3.27;1.70;;;;;;;14.16;100.00;98703.69;5111389;28;20191;-79
2022/05/30 10:55:56;;;;;;;2.73;1.30;;;;;;;14.06;100.00;98703.63;5114984;27;20210;-79
2022/05/30 10:58:30;;;;;;;3.43;1.30;;;;;;;14.32;100.00;98701.41;5106815;28;20209;-79
2022/05/30 11:01:03;;;;;;;3.83;1.43;;;;;;;14.53;100.00;98696.06;5108239;28;20205;-80
2022/05/30 11:03:38;;;;;;;5.23;1.50;;;;;;;14.20;100.00;98695.31;5114011;28;20273;-79
2022/05/30 11:06:13;;;;;;;2.83;1.73;;;;;;;14.57;100.00;98698.34;5111802;28;20225;-79
2022/05/30 11:08:51;;;;;;;2.87;1.20;;;;;;;14.79;100.00;98696.44;5110429;28;20274;-79
2022/05/30 11:11:26;;;;;;;2.73;1.10;;;;;;;14.89;100.00;98698.13;5113717;28;20206;-79
2022/05/30 11:14:00;;;;;;;2.70;1.43;;;;;;;14.77;100.00;98703.72;5106287;28;20194;-79
2022/05/30 11:16:40;;;;;;;4.07;1.30;;;;;;;15.26;100.00;98694.84;5112172;28;20202;-79
2022/05/30 11:19:17;;;;;;;3.63;1.40;;;;;;;15.89;100.00;98699.75;5108723;28;20210;-79
2022/05/30 11:21:52;;;;;;;3.87;1.60;;;;;;;16.38;100.00;98692.44;5114619;28;20191;-79
2022/05/30 11:24:22;;;;;;;3.10;1.40;;;;;;;17.19;95.20;98688.13;5113455;28;20194;-79
2022/05/30 11:27:06;;;;;;;4.47;1.30;;;;;;;17.78;88.43;98686.69;5107949;28;20214;-79
2022/05/30 11:30:23;;;;;;;3.03;1.70;;;;;;;17.49;84.44;98688.75;5110306;28;20305;-79
2022/05/30 11:33:07;;;;;;;4.90;1.47;;;;;;;17.04;88.24;98693.13;5089770;28;20187;-79
2022/05/30 11:35:37;;;;;;;4.90;1.47;;;;;;;17.72;85.98;98696.16;5104248;28;20201;-79
2022/05/30 11:38:31;;;;;;;5.83;1.40;;;;;;;17.50;84.13;98685.91;5110285;28;20195;-79
2022/05/30 11:41:23;;;;;;;4.00;1.30;;;;;;;17.78;83.63;98696.56;5110453;28;20187;-79
2022/05/30 11:44:31;;;;;;;3.60;1.40;;;;;;;17.67;78.40;98697.63;5109872;28;20559;-79
2022/05/30 11:47:08;;;;;;;3.67;1.40;;;;;;;17.70;78.70;98691.97;5107883;28;20218;-79
2022/05/30 11:49:39;;;;;;;4.40;1.50;;;;;;;18.12;77.94;98697.47;5108083;28;20206;-79
2022/05/30 11:52:18;;;;;;;3.30;1.37;;;;;;;17.84;74.25;98695.91;5107710;28;20198;-79
2022/05/30 11:55:12;;;;;;;4.43;1.33;;;;;;;18.02;77.02;98694.03;5112885;28;20262;-80
2022/05/30 11:57:48;;;;;;;2.50;1.20;;;;;;;17.88;76.90;98691.94;5110415;28;20202;-79
2022/05/30 12:00:28;;;;;;;2.63;1.33;;;;;;;17.94;74.27;98693.97;5113185;28;20186;-79
2022/05/30 12:03:29;;;;;;;3.87;1.20;;;;;;;18.23;72.51;98694.50;5114357;28;20206;-79
2022/05/30 12:06:34;;;;;;;3.27;1.50;;;;;;;18.30;68.98;98686.69;5117262;28;20222;-78